< < Back
Terminal Aerodrome Forecast


Current Version              Previous Versions:   1  2  3  4  5  6  7  8  9  

Terminal Aerodrome Forecast

212
FTUS42 KCAE 301700
TAFCAE
TAF
KCAE 301736Z 3018/3118 28012G20KT P6SM BKN035 BKN200
     FM302000 29012G20KT P6SM SCT050
     FM310100 VRB03KT P6SM SKC
     FM311400 17007KT P6SM SCT250=



Latest METAR

618
SAUS80 KWBC 310500
MTRCAE
METAR KCAE 310456Z 27007KT 10SM CLR 14/06 A3005 RMK AO2 SLP176 T01390056
402220067


USA.gov is the U.S. government's official web portal to all federal, state and local government web resources and services.